createdAt,value
2022-12-26T00:02:04.608Z,17.20
2022-12-26T00:04:50.958Z,17.20
2022-12-26T00:07:22.537Z,17.30
2022-12-26T00:09:51.669Z,17.30
2022-12-26T00:12:20.834Z,17.20
2022-12-26T00:14:50.421Z,17.30
2022-12-26T00:17:19.487Z,17.30
2022-12-26T00:19:48.693Z,17.30
2022-12-26T00:22:17.864Z,17.30
2022-12-26T00:24:47.003Z,17.40
2022-12-26T00:27:16.095Z,17.40
2022-12-26T00:29:45.253Z,17.50
2022-12-26T00:32:14.333Z,17.50
2022-12-26T00:34:43.422Z,17.60
2022-12-26T00:37:12.667Z,17.60
2022-12-26T00:39:41.774Z,17.70
2022-12-26T00:42:10.855Z,17.80
2022-12-26T00:44:40.583Z,17.80
2022-12-26T00:47:09.769Z,17.90
2022-12-26T00:50:12.355Z,17.90
2022-12-26T00:52:29.262Z,18.00
2022-12-26T00:54:58.359Z,18.10
2022-12-26T00:57:27.452Z,18.20
2022-12-26T00:59:56.506Z,18.30
2022-12-26T01:02:40.848Z,18.40
2022-12-26T01:05:13.029Z,18.50
2022-12-26T01:08:20.089Z,18.60
2022-12-26T01:10:32.516Z,18.70
2022-12-26T01:13:02.055Z,18.80
2022-12-26T01:15:32.088Z,18.90
2022-12-26T01:18:03.200Z,19.00
2022-12-26T01:20:32.593Z,19.10
2022-12-26T01:23:01.738Z,19.10
2022-12-26T01:25:30.909Z,19.30
2022-12-26T01:27:59.997Z,19.40
2022-12-26T01:30:29.357Z,19.40
2022-12-26T01:32:59.140Z,19.50
2022-12-26T01:35:28.259Z,19.60
2022-12-26T01:37:57.478Z,19.70
2022-12-26T01:40:26.667Z,19.80
2022-12-26T01:42:55.821Z,19.90
2022-12-26T01:45:33.574Z,20.00
2022-12-26T01:48:26.990Z,20.10
2022-12-26T01:51:05.121Z,20.10
2022-12-26T01:53:46.642Z,20.20
2022-12-26T01:56:31.193Z,20.30
2022-12-26T01:59:16.259Z,20.40
2022-12-26T02:01:49.100Z,20.40
2022-12-26T02:04:48.983Z,20.50
2022-12-26T02:07:18.320Z,20.50
2022-12-26T02:09:47.542Z,20.60
2022-12-26T02:12:38.443Z,20.70
2022-12-26T02:15:16.799Z,20.80
2022-12-26T02:17:46.822Z,20.80
2022-12-26T02:20:35.067Z,20.90
2022-12-26T02:23:22.600Z,21.00
2022-12-26T02:26:49.397Z,21.10
2022-12-26T02:29:49.249Z,21.20
2022-12-26T02:32:51.495Z,21.20
2022-12-26T02:35:38.046Z,21.30
2022-12-26T02:38:39.629Z,21.40
2022-12-26T02:41:27.782Z,21.40
2022-12-26T02:44:53.192Z,21.50
2022-12-26T02:48:04.594Z,21.60
2022-12-26T02:51:37.540Z,21.70
2022-12-26T02:54:43.541Z,21.80
2022-12-26T02:57:47.748Z,21.80
2022-12-26T03:00:40.154Z,21.90
2022-12-26T03:04:13.063Z,22.00
2022-12-26T03:07:12.695Z,22.10
2022-12-26T03:10:03.952Z,22.30
2022-12-26T03:13:10.605Z,22.40
2022-12-26T03:16:20.485Z,22.50
2022-12-26T03:19:04.830Z,22.60
2022-12-26T03:21:42.712Z,22.70
2022-12-26T03:24:16.966Z,22.80
2022-12-26T03:26:55.470Z,23.00
2022-12-26T03:29:44.588Z,23.10
2022-12-26T03:32:15.019Z,23.20
2022-12-26T03:34:46.554Z,23.30
2022-12-26T03:37:47.315Z,23.40
2022-12-26T03:41:26.872Z,23.50
2022-12-26T03:45:13.558Z,23.60
2022-12-26T03:48:36.116Z,23.80
2022-12-26T03:51:38.715Z,23.90
2022-12-26T03:54:49.521Z,24.00
2022-12-26T03:57:42.785Z,24.10
2022-12-26T04:00:34.070Z,24.30
2022-12-26T04:03:32.752Z,24.40
2022-12-26T04:06:25.544Z,24.50
2022-12-26T04:09:27.543Z,24.70
2022-12-26T04:12:18.005Z,24.70
2022-12-26T04:15:22.471Z,24.80
2022-12-26T04:19:00.633Z,24.90
2022-12-26T04:22:54.661Z,25.00
2022-12-26T04:25:53.969Z,25.10
2022-12-26T04:28:42.793Z,25.20
2022-12-26T04:31:42.548Z,25.30
2022-12-26T04:34:52.109Z,25.40
2022-12-26T04:37:45.427Z,25.50
2022-12-26T04:40:42.001Z,25.60
2022-12-26T04:43:49.087Z,25.80
2022-12-26T04:46:24.046Z,25.90
2022-12-26T04:49:14.188Z,26.10
2022-12-26T04:51:43.589Z,26.20
2022-12-26T04:54:12.898Z,26.30
2022-12-26T04:56:42.154Z,26.40
2022-12-26T04:59:11.739Z,26.50
2022-12-26T05:01:59.300Z,26.60
2022-12-26T05:04:47.284Z,26.70
2022-12-26T05:07:40.902Z,26.80
2022-12-26T05:10:18.115Z,26.80
2022-12-26T05:12:48.990Z,26.90
2022-12-26T05:15:19.100Z,26.90
2022-12-26T05:18:07.706Z,27.00
2022-12-26T05:20:39.643Z,27.00
2022-12-26T05:23:40.981Z,27.00
2022-12-26T05:26:48.495Z,27.10
2022-12-26T05:29:17.871Z,27.20
2022-12-26T05:31:47.188Z,27.40
2022-12-26T05:34:18.526Z,27.40
2022-12-26T05:36:52.735Z,27.50
2022-12-26T05:39:22.036Z,27.50
2022-12-26T05:41:51.359Z,27.60
2022-12-26T05:44:20.554Z,27.70
2022-12-26T05:46:50.809Z,27.80
2022-12-26T05:49:20.026Z,27.80
2022-12-26T05:51:49.186Z,27.90
2022-12-26T05:54:18.434Z,27.90
2022-12-26T05:56:49.454Z,27.80
2022-12-26T05:59:18.936Z,27.80
2022-12-26T06:01:48.260Z,27.80
2022-12-26T06:04:17.751Z,27.90
2022-12-26T06:06:46.958Z,27.90
2022-12-26T06:09:16.091Z,28.00
2022-12-26T06:11:48.796Z,28.10
2022-12-26T06:14:18.693Z,28.10
2022-12-26T06:16:47.961Z,28.20
2022-12-26T06:19:17.366Z,28.20
2022-12-26T06:21:46.608Z,28.30
2022-12-26T06:24:16.065Z,28.30
2022-12-26T06:26:45.280Z,28.30
2022-12-26T06:29:14.701Z,28.30
2022-12-26T06:31:43.928Z,28.40
2022-12-26T06:34:13.895Z,28.40
2022-12-26T06:36:43.856Z,28.50
2022-12-26T06:39:13.197Z,28.50
2022-12-26T06:41:42.379Z,28.50
2022-12-26T06:44:17.911Z,28.40
2022-12-26T06:46:47.793Z,28.40
2022-12-26T06:49:16.950Z,28.40
2022-12-26T06:51:46.200Z,28.40
2022-12-26T06:54:15.638Z,28.50
2022-12-26T06:56:44.877Z,28.60
2022-12-26T06:59:14.298Z,28.80
2022-12-26T07:01:43.685Z,28.90
2022-12-26T07:04:15.185Z,29.00
2022-12-26T07:06:44.585Z,29.10
2022-12-26T07:09:18.420Z,29.20
2022-12-26T07:11:52.161Z,29.30
2022-12-26T07:14:22.157Z,29.40
2022-12-26T07:16:51.371Z,29.40
2022-12-26T07:19:20.705Z,29.50
2022-12-26T07:21:50.025Z,29.50
2022-12-26T07:24:24.247Z,29.50
2022-12-26T07:26:53.361Z,29.50
2022-12-26T07:29:23.499Z,29.60
2022-12-26T07:31:52.729Z,29.60
2022-12-26T07:34:24.054Z,29.60
2022-12-26T07:36:56.977Z,29.60
2022-12-26T07:39:26.122Z,29.70
2022-12-26T07:42:01.265Z,29.60
2022-12-26T07:44:33.431Z,29.70
2022-12-26T07:47:03.063Z,29.70
2022-12-26T07:49:32.311Z,29.70
2022-12-26T07:52:01.401Z,29.60
2022-12-26T07:54:30.990Z,29.60
2022-12-26T07:57:29.925Z,29.60
2022-12-26T07:59:53.056Z,29.60
2022-12-26T08:02:22.854Z,29.60
2022-12-26T08:04:53.007Z,29.60
2022-12-26T08:07:22.080Z,29.60
2022-12-26T08:09:51.310Z,29.60
2022-12-26T08:12:25.455Z,29.60
2022-12-26T08:14:55.120Z,29.50
2022-12-26T08:17:24.210Z,29.50
2022-12-26T08:19:53.428Z,29.50
2022-12-26T08:22:22.567Z,29.50
2022-12-26T08:24:51.700Z,29.50
2022-12-26T08:27:20.914Z,29.50
2022-12-26T08:29:50.349Z,29.50
2022-12-26T08:32:19.423Z,29.50
2022-12-26T08:34:48.671Z,29.50
2022-12-26T08:37:17.981Z,29.50
2022-12-26T08:39:47.233Z,29.50
2022-12-26T08:42:16.309Z,29.50
2022-12-26T08:44:45.393Z,29.50
2022-12-26T08:47:15.036Z,29.50
2022-12-26T08:49:44.668Z,29.50
2022-12-26T08:52:13.768Z,29.50
2022-12-26T08:54:42.837Z,29.50
2022-12-26T08:57:11.946Z,29.50
2022-12-26T08:59:41.100Z,29.40
2022-12-26T09:02:13.687Z,29.40
2022-12-26T09:04:42.834Z,29.40
2022-12-26T09:07:12.058Z,29.40
2022-12-26T09:09:41.221Z,29.40
2022-12-26T09:12:10.344Z,29.30
2022-12-26T09:14:39.891Z,29.30
2022-12-26T09:17:09.034Z,29.30
2022-12-26T09:19:39.038Z,29.30
2022-12-26T09:22:28.281Z,29.30
2022-12-26T09:25:01.057Z,29.20
2022-12-26T09:27:31.171Z,29.20
2022-12-26T09:30:00.799Z,29.10
2022-12-26T09:32:36.773Z,29.10
2022-12-26T09:35:07.296Z,29.00
2022-12-26T09:37:36.496Z,28.90
2022-12-26T09:40:07.241Z,28.90
2022-12-26T09:43:13.957Z,28.80
2022-12-26T09:46:14.355Z,28.70
2022-12-26T09:49:33.182Z,28.60
2022-12-26T09:52:18.907Z,28.40
2022-12-26T09:55:04.964Z,28.30
2022-12-26T09:57:49.088Z,28.20
2022-12-26T10:00:30.189Z,28.10
2022-12-26T10:03:01.503Z,28.00
2022-12-26T10:05:48.878Z,27.90
2022-12-26T10:08:49.515Z,27.80
2022-12-26T10:12:17.018Z,27.60
2022-12-26T10:14:48.998Z,27.50
2022-12-26T10:17:52.046Z,27.40
2022-12-26T10:20:40.922Z,27.30
2022-12-26T10:23:22.785Z,27.20
2022-12-26T10:26:16.707Z,27.10
2022-12-26T10:29:10.325Z,27.00
2022-12-26T10:31:57.666Z,26.90
2022-12-26T10:34:43.314Z,26.80
2022-12-26T10:37:31.900Z,26.60
2022-12-26T10:40:27.193Z,26.50
2022-12-26T10:43:21.062Z,26.40
2022-12-26T10:46:11.533Z,26.30
2022-12-26T10:48:40.944Z,26.20
2022-12-26T10:51:13.672Z,26.10
2022-12-26T10:53:49.722Z,26.00
2022-12-26T10:56:20.492Z,25.90
2022-12-26T10:59:02.374Z,25.90
2022-12-26T11:01:39.426Z,25.80
2022-12-26T11:05:02.054Z,25.70
2022-12-26T11:07:18.928Z,25.60
2022-12-26T11:09:52.465Z,25.60
2022-12-26T11:12:51.066Z,25.50
2022-12-26T11:15:50.287Z,25.40
2022-12-26T11:18:29.223Z,25.30
2022-12-26T11:21:19.154Z,25.30
2022-12-26T11:23:52.543Z,25.20
2022-12-26T11:26:30.506Z,25.20
2022-12-26T11:29:25.460Z,25.10
2022-12-26T11:32:06.247Z,25.00
2022-12-26T11:34:47.874Z,25.00
2022-12-26T11:37:42.184Z,24.90
2022-12-26T11:40:31.704Z,24.80
2022-12-26T11:43:07.350Z,24.80
2022-12-26T11:45:51.555Z,24.70
2022-12-26T11:48:29.221Z,24.70
2022-12-26T11:50:58.874Z,24.70
2022-12-26T11:53:28.335Z,24.60
2022-12-26T11:56:08.174Z,24.60
2022-12-26T11:58:38.309Z,24.50
2022-12-26T12:01:16.923Z,24.40
2022-12-26T12:03:52.199Z,24.30
2022-12-26T12:06:24.636Z,24.30
2022-12-26T12:09:15.673Z,24.20
2022-12-26T12:11:56.848Z,24.10
2022-12-26T12:14:42.260Z,24.10
2022-12-26T12:17:44.442Z,24.00
2022-12-26T12:20:47.470Z,24.00
2022-12-26T12:23:45.003Z,23.90
2022-12-26T12:26:44.832Z,23.80
2022-12-26T12:29:53.896Z,23.70
2022-12-26T12:32:50.650Z,23.70
2022-12-26T12:36:00.812Z,23.60
2022-12-26T12:39:11.825Z,23.60
2022-12-26T12:42:12.272Z,23.50
2022-12-26T12:44:56.575Z,23.50
2022-12-26T12:47:50.526Z,23.40
2022-12-26T12:50:44.329Z,23.40
2022-12-26T12:53:47.311Z,23.30
2022-12-26T12:56:39.997Z,23.20
2022-12-26T12:59:44.883Z,23.10
2022-12-26T13:02:40.069Z,23.10
2022-12-26T13:05:33.176Z,23.00
2022-12-26T13:08:59.081Z,23.00
2022-12-26T13:11:41.494Z,22.90
2022-12-26T13:14:32.393Z,22.90
2022-12-26T13:17:41.799Z,22.80
2022-12-26T13:20:34.886Z,22.80
2022-12-26T13:23:50.887Z,22.80
2022-12-26T13:29:24.433Z,22.70
2022-12-26T13:31:54.256Z,22.60
2022-12-26T13:34:24.461Z,22.60
2022-12-26T13:37:00.028Z,22.50
2022-12-26T13:39:36.946Z,22.50
2022-12-26T13:42:30.623Z,22.40
2022-12-26T13:45:44.644Z,22.40
2022-12-26T13:48:19.868Z,22.30
2022-12-26T13:51:03.475Z,22.30
2022-12-26T13:53:43.046Z,22.20
2022-12-26T13:56:21.322Z,22.20
2022-12-26T13:59:19.386Z,22.20
2022-12-26T14:02:05.978Z,22.10
2022-12-26T14:05:13.941Z,22.10
2022-12-26T14:08:08.269Z,22.00
2022-12-26T14:11:01.142Z,22.00
2022-12-26T14:13:42.198Z,21.90
2022-12-26T14:16:53.371Z,21.90
2022-12-26T14:20:02.190Z,21.80
2022-12-26T14:22:57.543Z,21.80
2022-12-26T14:25:50.952Z,21.80
2022-12-26T14:29:03.728Z,21.80
2022-12-26T14:32:15.614Z,21.80
2022-12-26T14:35:28.074Z,21.70
2022-12-26T14:38:23.987Z,21.70
2022-12-26T14:41:32.063Z,21.70
2022-12-26T14:44:17.097Z,21.60
2022-12-26T14:46:49.446Z,21.60
2022-12-26T14:49:39.291Z,21.50
2022-12-26T14:52:27.096Z,21.50
2022-12-26T14:54:57.778Z,21.50
2022-12-26T14:57:47.520Z,21.40
2022-12-26T15:00:31.333Z,21.40
2022-12-26T15:03:03.662Z,21.40
2022-12-26T15:05:42.358Z,21.30
2022-12-26T15:08:36.459Z,21.30
2022-12-26T15:11:40.107Z,21.20
2022-12-26T15:14:39.429Z,21.20
2022-12-26T15:17:23.647Z,21.20
2022-12-26T15:20:15.610Z,21.20
2022-12-26T15:23:13.069Z,21.10
2022-12-26T15:26:22.190Z,21.10
2022-12-26T15:29:03.668Z,21.10
2022-12-26T15:32:20.317Z,21.10
2022-12-26T15:35:23.577Z,21.10
2022-12-26T15:38:16.968Z,21.10
2022-12-26T15:40:57.498Z,21.10
2022-12-26T15:43:57.115Z,21.00
2022-12-26T15:46:36.480Z,21.00
2022-12-26T15:50:07.126Z,21.00
2022-12-26T15:52:57.384Z,20.90
2022-12-26T15:56:13.199Z,20.90
2022-12-26T15:59:30.742Z,20.90
2022-12-26T16:02:00.612Z,20.90
2022-12-26T16:04:51.026Z,20.90
2022-12-26T16:07:35.259Z,20.90
2022-12-26T16:10:27.246Z,20.80
2022-12-26T16:13:26.124Z,20.80
2022-12-26T16:16:01.658Z,20.80
2022-12-26T16:18:37.439Z,20.80
2022-12-26T16:21:26.954Z,20.80
2022-12-26T16:23:58.264Z,20.80
2022-12-26T16:26:30.721Z,20.80
2022-12-26T16:29:02.638Z,20.70
2022-12-26T16:31:32.633Z,20.70
2022-12-26T16:34:02.789Z,20.70
2022-12-26T16:36:38.392Z,20.70
2022-12-26T16:39:11.901Z,20.60
2022-12-26T16:42:13.279Z,20.60
2022-12-26T16:44:45.407Z,20.60
2022-12-26T16:47:16.566Z,20.60
2022-12-26T16:49:46.163Z,20.60
2022-12-26T16:52:45.881Z,20.60
2022-12-26T16:55:34.656Z,20.60
2022-12-26T16:58:17.522Z,20.60
2022-12-26T17:01:10.672Z,20.60
2022-12-26T17:03:57.389Z,20.50
2022-12-26T17:06:40.567Z,20.50
2022-12-26T17:09:17.083Z,20.50
2022-12-26T17:11:59.845Z,20.50
2022-12-26T17:14:44.239Z,20.50
2022-12-26T17:17:39.171Z,20.50
2022-12-26T17:20:26.591Z,20.50
2022-12-26T17:22:57.948Z,20.50
2022-12-26T17:25:34.403Z,20.50
2022-12-26T17:28:13.379Z,20.40
2022-12-26T17:30:49.506Z,20.40
2022-12-26T17:33:27.952Z,20.40
2022-12-26T17:39:24.991Z,20.40
2022-12-26T17:42:01.160Z,20.40
2022-12-26T17:44:47.564Z,20.40
2022-12-26T17:47:29.409Z,20.40
2022-12-26T17:49:59.306Z,20.40
2022-12-26T17:52:31.334Z,20.40
2022-12-26T17:55:02.767Z,20.40
2022-12-26T17:57:32.510Z,20.30
2022-12-26T18:00:01.728Z,20.30
2022-12-26T18:02:31.104Z,20.30
2022-12-26T18:05:00.287Z,20.30
2022-12-26T18:07:31.728Z,20.30
2022-12-26T18:10:03.343Z,20.20
2022-12-26T18:12:32.468Z,20.20
2022-12-26T18:15:02.603Z,20.20
2022-12-26T18:17:35.228Z,20.20
2022-12-26T18:20:17.310Z,20.20
2022-12-26T18:22:48.572Z,20.10
2022-12-26T18:25:20.569Z,20.10
2022-12-26T18:27:51.194Z,20.10
2022-12-26T18:30:25.872Z,20.10
2022-12-26T18:32:56.246Z,20.00
2022-12-26T18:35:25.528Z,20.00
2022-12-26T18:37:55.621Z,20.00
2022-12-26T18:40:37.922Z,19.90
2022-12-26T18:43:09.979Z,19.90
2022-12-26T18:45:40.136Z,19.90
2022-12-26T18:48:16.104Z,19.90
2022-12-26T18:50:45.752Z,19.80
2022-12-26T18:53:15.205Z,19.80
2022-12-26T18:55:44.596Z,19.80
2022-12-26T18:58:15.073Z,19.80
2022-12-26T19:00:44.283Z,19.80
2022-12-26T19:03:13.524Z,19.80
2022-12-26T19:05:42.730Z,19.70
2022-12-26T19:08:13.107Z,19.70
2022-12-26T19:10:48.380Z,19.70
2022-12-26T19:13:18.049Z,19.70
2022-12-26T19:15:50.892Z,19.70
2022-12-26T19:18:20.330Z,19.70
2022-12-26T19:20:49.427Z,19.70
2022-12-26T19:23:18.586Z,19.60
2022-12-26T19:25:47.663Z,19.60
2022-12-26T19:28:17.140Z,19.60
2022-12-26T19:30:46.367Z,19.60
2022-12-26T19:33:15.497Z,19.60
2022-12-26T19:35:44.680Z,19.60
2022-12-26T19:38:14.590Z,19.60
2022-12-26T19:40:43.671Z,19.50
2022-12-26T19:43:12.809Z,19.50
2022-12-26T19:45:41.939Z,19.50
2022-12-26T19:48:11.025Z,19.40
2022-12-26T19:50:40.191Z,19.40
2022-12-26T19:53:09.293Z,19.40
2022-12-26T19:55:39.522Z,19.30
2022-12-26T19:58:08.634Z,19.30
2022-12-26T20:00:37.783Z,19.20
2022-12-26T20:03:06.966Z,19.20
2022-12-26T20:05:40.264Z,19.10
2022-12-26T20:08:11.108Z,19.10
2022-12-26T20:10:41.011Z,19.00
2022-12-26T20:13:10.109Z,18.90
2022-12-26T20:15:39.255Z,18.90
2022-12-26T20:18:12.181Z,18.80
2022-12-26T20:20:43.989Z,18.80
2022-12-26T20:23:13.079Z,18.70
2022-12-26T20:25:42.384Z,18.60
2022-12-26T20:28:11.968Z,18.60
2022-12-26T20:30:41.173Z,18.50
2022-12-26T20:33:10.869Z,18.50
2022-12-26T20:35:40.036Z,18.40
2022-12-26T20:38:09.145Z,18.40
2022-12-26T20:40:38.215Z,18.40
2022-12-26T20:43:07.436Z,18.40
2022-12-26T20:45:39.324Z,18.50
2022-12-26T20:48:08.617Z,18.50
2022-12-26T20:50:37.680Z,18.50
2022-12-26T20:53:06.874Z,18.50
2022-12-26T20:55:39.665Z,18.50
2022-12-26T20:58:08.724Z,18.50
2022-12-26T21:00:38.190Z,18.40
2022-12-26T21:03:07.301Z,18.40
2022-12-26T21:05:36.497Z,18.40
2022-12-26T21:08:06.385Z,18.30
2022-12-26T21:10:35.584Z,18.30
2022-12-26T21:13:04.882Z,18.20
2022-12-26T21:15:33.994Z,18.20
2022-12-26T21:18:03.636Z,18.20
2022-12-26T21:20:33.427Z,18.20
2022-12-26T21:23:02.545Z,18.30
2022-12-26T21:25:31.799Z,18.30
2022-12-26T21:28:00.951Z,18.30
2022-12-26T21:30:31.332Z,18.30
2022-12-26T21:33:00.600Z,18.30
2022-12-26T21:35:29.788Z,18.30
2022-12-26T21:37:58.992Z,18.30
2022-12-26T21:40:28.755Z,18.30
2022-12-26T21:42:58.093Z,18.30
2022-12-26T21:45:27.644Z,18.20
2022-12-26T21:47:56.837Z,18.20
2022-12-26T21:50:26.277Z,18.10
2022-12-26T21:52:57.186Z,18.10
2022-12-26T21:55:29.076Z,18.00
2022-12-26T21:58:02.154Z,18.00
2022-12-26T22:00:32.236Z,17.90
2022-12-26T22:03:19.859Z,17.90
2022-12-26T22:05:49.425Z,17.90
2022-12-26T22:08:18.625Z,17.90
2022-12-26T22:11:07.843Z,17.90
2022-12-26T22:13:46.505Z,17.90
2022-12-26T22:16:15.418Z,17.90
2022-12-26T22:18:49.477Z,17.90
2022-12-26T22:21:24.693Z,18.00
2022-12-26T22:23:55.472Z,17.90
2022-12-26T22:26:25.810Z,18.00
2022-12-26T22:28:56.280Z,18.00
2022-12-26T22:31:34.773Z,17.90
2022-12-26T22:34:11.661Z,17.90
2022-12-26T22:36:41.709Z,17.90
2022-12-26T22:39:17.936Z,17.90
2022-12-26T22:41:48.146Z,17.90
2022-12-26T22:44:17.759Z,17.90
2022-12-26T22:46:47.023Z,17.90
2022-12-26T22:49:16.309Z,17.90
2022-12-26T22:51:45.576Z,17.80
2022-12-26T22:54:15.550Z,17.80
2022-12-26T22:56:44.771Z,17.80
2022-12-26T22:59:33.836Z,17.90
2022-12-26T23:02:03.788Z,17.90
2022-12-26T23:04:33.659Z,17.80
2022-12-26T23:07:03.332Z,17.90
2022-12-26T23:09:33.994Z,17.80
2022-12-26T23:12:21.726Z,17.80
2022-12-26T23:14:51.187Z,17.80
2022-12-26T23:17:40.533Z,17.80
2022-12-26T23:20:32.831Z,17.80
2022-12-26T23:23:02.598Z,17.80
2022-12-26T23:25:32.726Z,17.80
2022-12-26T23:28:20.052Z,17.80
2022-12-26T23:30:49.579Z,17.70
2022-12-26T23:33:18.796Z,17.70
2022-12-26T23:35:48.013Z,17.60
2022-12-26T23:38:17.517Z,17.60
2022-12-26T23:40:46.774Z,17.60
2022-12-26T23:43:15.988Z,17.60
2022-12-26T23:45:46.719Z,17.50
2022-12-26T23:48:16.043Z,17.50
2022-12-26T23:50:45.299Z,17.50
2022-12-26T23:53:14.473Z,17.60
2022-12-26T23:55:43.877Z,17.60
2022-12-26T23:58:13.160Z,17.60
